createdAt,value
2023-01-27T00:01:17.395Z,0.08
2023-01-27T00:03:44.092Z,0.12
2023-01-27T00:06:12.127Z,0.14
2023-01-27T00:08:39.209Z,0.14
2023-01-27T00:11:34.725Z,0.14
2023-01-27T00:14:01.287Z,0.14
2023-01-27T00:16:28.191Z,0.14
2023-01-27T00:18:54.747Z,0.14
2023-01-27T00:21:39.946Z,0.14
2023-01-27T00:24:28.616Z,0.17
2023-01-27T00:26:55.182Z,0.14
2023-01-27T00:29:21.765Z,0.14
2023-01-27T00:32:06.719Z,0.14
2023-01-27T00:34:33.256Z,0.15
2023-01-27T00:36:59.974Z,0.14
2023-01-27T00:39:26.564Z,0.15
2023-01-27T00:41:53.254Z,0.14
2023-01-27T00:44:20.441Z,0.15
2023-01-27T00:46:47.100Z,0.17
2023-01-27T00:49:13.812Z,0.18
2023-01-27T00:51:41.125Z,0.17
2023-01-27T00:54:08.148Z,0.15
2023-01-27T00:56:35.179Z,0.15
2023-01-27T00:59:01.903Z,0.22
2023-01-27T01:01:29.331Z,0.19
2023-01-27T01:03:55.995Z,0.24
2023-01-27T01:06:22.675Z,0.24
2023-01-27T01:08:51.213Z,0.25
2023-01-27T01:11:19.229Z,0.28
2023-01-27T01:13:47.672Z,0.24
2023-01-27T01:16:18.350Z,0.22
2023-01-27T01:18:45.489Z,0.22
2023-01-27T01:21:12.729Z,0.19
2023-01-27T01:23:41.541Z,0.19
2023-01-27T01:26:10.996Z,0.19
2023-01-27T01:28:37.634Z,0.21
2023-01-27T01:31:09.388Z,0.24
2023-01-27T01:33:36.838Z,0.24
2023-01-27T01:36:18.695Z,0.22
2023-01-27T01:38:46.499Z,0.24
2023-01-27T01:41:17.064Z,0.22
2023-01-27T01:43:43.967Z,0.21
2023-01-27T01:46:12.028Z,0.24
2023-01-27T01:48:43.299Z,0.22
2023-01-27T01:51:22.727Z,0.25
2023-01-27T01:54:04.795Z,0.25
2023-01-27T01:56:49.719Z,0.25
2023-01-27T01:59:42.750Z,0.26
2023-01-27T02:02:14.144Z,0.28
2023-01-27T02:04:46.959Z,0.28
2023-01-27T02:07:22.161Z,0.26
2023-01-27T02:09:49.025Z,0.26
2023-01-27T02:12:15.598Z,0.24
2023-01-27T02:14:42.365Z,0.25
2023-01-27T02:17:12.493Z,0.25
2023-01-27T02:19:45.301Z,0.24
2023-01-27T02:22:20.339Z,0.26
2023-01-27T02:24:50.828Z,0.25
2023-01-27T02:27:17.558Z,0.26
2023-01-27T02:29:44.251Z,0.26
2023-01-27T02:32:25.969Z,0.26
2023-01-27T02:34:55.579Z,0.29
2023-01-27T02:37:24.023Z,0.31
2023-01-27T02:39:52.395Z,0.28
2023-01-27T02:42:19.542Z,0.32
2023-01-27T02:44:46.149Z,0.31
2023-01-27T02:47:12.776Z,0.28
2023-01-27T02:49:39.351Z,0.29
2023-01-27T02:52:05.934Z,0.32
2023-01-27T02:54:32.543Z,0.28
2023-01-27T02:56:59.204Z,0.32
2023-01-27T02:59:25.783Z,0.33
2023-01-27T03:01:52.492Z,0.37
2023-01-27T03:04:19.125Z,0.32
2023-01-27T03:06:45.673Z,0.32
2023-01-27T03:09:12.371Z,0.32
2023-01-27T03:11:57.597Z,0.35
2023-01-27T03:14:42.579Z,0.35
2023-01-27T03:17:27.577Z,0.37
2023-01-27T03:19:54.183Z,0.41
2023-01-27T03:22:20.915Z,0.37
2023-01-27T03:24:47.498Z,0.38
2023-01-27T03:27:14.067Z,0.39
2023-01-27T03:29:55.798Z,0.41
2023-01-27T03:32:23.944Z,0.39
2023-01-27T03:34:50.897Z,0.42
2023-01-27T03:37:36.213Z,0.39
2023-01-27T03:40:22.518Z,0.44
2023-01-27T03:43:11.670Z,0.45
2023-01-27T03:45:56.488Z,0.49
2023-01-27T03:48:23.333Z,0.46
2023-01-27T03:50:55.551Z,0.45
2023-01-27T03:53:22.323Z,0.48
2023-01-27T03:55:48.965Z,0.45
2023-01-27T03:58:21.654Z,0.44
2023-01-27T04:00:54.774Z,0.44
2023-01-27T04:03:42.837Z,0.45
2023-01-27T04:06:30.218Z,0.44
2023-01-27T04:08:57.348Z,0.42
2023-01-27T04:11:43.252Z,0.38
2023-01-27T04:14:11.104Z,0.38
2023-01-27T04:16:38.290Z,0.42
2023-01-27T04:19:07.105Z,0.44
2023-01-27T04:21:34.386Z,0.48
2023-01-27T04:24:01.277Z,0.49
2023-01-27T04:26:34.800Z,0.48
2023-01-27T04:29:02.745Z,0.46
2023-01-27T04:31:30.174Z,0.49
2023-01-27T04:33:56.764Z,0.49
2023-01-27T04:36:23.732Z,0.48
2023-01-27T04:38:50.416Z,0.58
2023-01-27T04:41:17.135Z,0.53
2023-01-27T04:43:43.731Z,0.55
2023-01-27T04:46:10.461Z,0.55
2023-01-27T04:48:37.149Z,0.55
2023-01-27T04:51:04.291Z,0.53
2023-01-27T04:53:30.926Z,0.55
2023-01-27T04:56:06.790Z,0.53
2023-01-27T04:58:33.787Z,0.50
2023-01-27T05:01:00.360Z,0.55
2023-01-27T05:03:26.935Z,0.56
2023-01-27T05:05:53.639Z,0.59
2023-01-27T05:08:20.261Z,0.58
2023-01-27T05:10:46.852Z,0.60
2023-01-27T05:13:14.331Z,0.59
2023-01-27T05:15:41.194Z,0.62
2023-01-27T05:18:08.159Z,0.66
2023-01-27T05:20:34.737Z,0.66
2023-01-27T05:23:19.934Z,0.68
2023-01-27T05:25:46.581Z,0.72
2023-01-27T05:28:13.286Z,0.73
2023-01-27T05:30:39.977Z,0.70
2023-01-27T05:33:08.331Z,0.68
2023-01-27T05:35:35.435Z,0.68
2023-01-27T05:38:02.506Z,0.68
2023-01-27T05:40:29.152Z,0.75
2023-01-27T05:42:55.714Z,0.76
2023-01-27T05:45:22.220Z,0.76
2023-01-27T05:47:50.613Z,0.79
2023-01-27T05:50:17.785Z,0.79
2023-01-27T05:52:44.933Z,0.81
2023-01-27T05:55:12.100Z,0.81
2023-01-27T05:57:38.906Z,0.80
2023-01-27T06:00:06.059Z,0.79
2023-01-27T06:02:32.679Z,0.80
2023-01-27T06:04:59.286Z,0.80
2023-01-27T06:07:25.803Z,0.81
2023-01-27T06:09:53.506Z,0.83
2023-01-27T06:12:20.065Z,0.83
2023-01-27T06:14:46.841Z,0.87
2023-01-27T06:17:13.454Z,0.86
2023-01-27T06:19:40.001Z,0.87
2023-01-27T06:22:06.636Z,0.91
2023-01-27T06:24:33.232Z,0.93
2023-01-27T06:26:59.821Z,0.93
2023-01-27T06:29:26.417Z,0.94
2023-01-27T06:31:53.167Z,0.94
2023-01-27T06:34:19.828Z,0.90
2023-01-27T06:36:46.465Z,0.96
2023-01-27T06:39:13.217Z,0.96
2023-01-27T06:41:39.894Z,0.99
2023-01-27T06:44:06.496Z,1.04
2023-01-27T06:46:34.145Z,1.05
2023-01-27T06:49:00.782Z,1.04
2023-01-27T06:51:27.363Z,1.03
2023-01-27T06:53:54.210Z,1.05
2023-01-27T06:56:20.840Z,1.05
2023-01-27T06:58:47.449Z,1.13
2023-01-27T07:01:14.171Z,1.13
2023-01-27T07:03:43.520Z,1.17
2023-01-27T07:06:11.153Z,1.24
2023-01-27T07:08:37.866Z,1.30
2023-01-27T07:11:05.425Z,1.30
2023-01-27T07:13:32.048Z,1.28
2023-01-27T07:16:00.245Z,1.31
2023-01-27T07:18:26.815Z,1.41
2023-01-27T07:20:53.640Z,1.44
2023-01-27T07:23:20.279Z,1.47
2023-01-27T07:25:46.922Z,1.45
2023-01-27T07:28:13.802Z,1.52
2023-01-27T07:30:40.456Z,1.55
2023-01-27T07:33:09.268Z,1.55
2023-01-27T07:35:36.875Z,1.54
2023-01-27T07:38:04.260Z,1.66
2023-01-27T07:40:30.824Z,1.69
2023-01-27T07:43:01.634Z,1.72
2023-01-27T07:45:28.963Z,1.76
2023-01-27T07:48:07.006Z,1.76
2023-01-27T07:50:34.713Z,1.83
2023-01-27T07:53:03.151Z,1.87
2023-01-27T07:55:30.736Z,1.92
2023-01-27T07:57:57.963Z,1.93
2023-01-27T08:00:25.818Z,2.02
2023-01-27T08:02:56.971Z,2.07
2023-01-27T08:05:24.516Z,2.10
2023-01-27T08:07:52.279Z,2.17
2023-01-27T08:10:19.149Z,2.19
2023-01-27T08:12:46.097Z,2.24
2023-01-27T08:15:13.080Z,2.23
2023-01-27T08:17:40.133Z,2.29
2023-01-27T08:20:07.591Z,2.29
2023-01-27T08:22:34.303Z,2.36
2023-01-27T08:25:01.177Z,2.40
2023-01-27T08:27:27.739Z,2.51
2023-01-27T08:29:54.298Z,2.60
2023-01-27T08:32:20.958Z,2.66
2023-01-27T08:34:47.564Z,2.66
2023-01-27T08:37:14.316Z,2.68
2023-01-27T08:39:40.951Z,2.74
2023-01-27T08:42:07.558Z,2.78
2023-01-27T08:44:34.311Z,2.78
2023-01-27T08:47:00.897Z,2.84
2023-01-27T08:49:27.592Z,2.88
2023-01-27T08:51:54.201Z,2.87
2023-01-27T08:54:20.810Z,2.88
2023-01-27T08:56:47.480Z,2.89
2023-01-27T08:59:14.127Z,2.91
2023-01-27T09:01:41.690Z,2.95
2023-01-27T09:04:08.325Z,2.95
2023-01-27T09:06:34.934Z,3.02
2023-01-27T09:09:12.003Z,2.99
2023-01-27T09:11:41.947Z,2.96
2023-01-27T09:14:09.227Z,2.95
2023-01-27T09:16:35.889Z,2.93
2023-01-27T09:19:02.668Z,2.95
2023-01-27T09:21:30.139Z,2.99
2023-01-27T09:23:57.964Z,2.96
2023-01-27T09:26:24.599Z,3.06
2023-01-27T09:28:51.314Z,3.05
2023-01-27T09:31:18.371Z,3.03
2023-01-27T09:33:45.192Z,3.15
2023-01-27T09:36:16.805Z,3.13
2023-01-27T09:38:52.161Z,3.19
2023-01-27T09:42:00.061Z,3.20
2023-01-27T09:45:08.886Z,3.24
2023-01-27T09:47:40.930Z,3.22
2023-01-27T09:50:16.704Z,3.23
2023-01-27T09:53:01.527Z,3.26
2023-01-27T09:55:57.909Z,3.19
2023-01-27T09:58:52.244Z,3.18
2023-01-27T10:01:33.794Z,3.29
2023-01-27T10:04:10.961Z,3.22
2023-01-27T10:06:50.375Z,3.23
2023-01-27T10:09:43.023Z,3.30
2023-01-27T10:12:34.050Z,3.43
2023-01-27T10:15:09.821Z,3.41
2023-01-27T10:18:06.939Z,3.39
2023-01-27T10:20:47.097Z,3.41
2023-01-27T10:23:38.128Z,3.41
2023-01-27T10:26:24.971Z,3.39
2023-01-27T10:29:19.070Z,3.32
2023-01-27T10:32:05.249Z,3.30
2023-01-27T10:34:37.578Z,3.26
2023-01-27T10:37:36.047Z,3.27
2023-01-27T10:40:25.046Z,3.19
2023-01-27T10:43:16.770Z,3.22
2023-01-27T10:46:01.973Z,3.26
2023-01-27T10:48:46.089Z,3.23
2023-01-27T10:51:21.750Z,3.23
2023-01-27T10:53:57.518Z,3.20
2023-01-27T10:56:32.150Z,3.26
2023-01-27T10:59:16.866Z,3.22
2023-01-27T11:01:48.976Z,3.20
2023-01-27T11:04:37.077Z,3.22
2023-01-27T11:07:06.750Z,3.30
2023-01-27T11:09:43.623Z,3.34
2023-01-27T11:12:13.386Z,3.26
2023-01-27T11:14:49.980Z,3.32
2023-01-27T11:17:31.920Z,3.39
2023-01-27T11:20:12.956Z,3.32
2023-01-27T11:22:51.134Z,3.27
2023-01-27T11:25:28.744Z,3.30
2023-01-27T11:28:04.345Z,3.26
2023-01-27T11:30:36.872Z,3.24
2023-01-27T11:33:19.187Z,3.18
2023-01-27T11:35:46.542Z,3.18
2023-01-27T11:38:16.512Z,3.15
2023-01-27T11:40:45.694Z,3.18
2023-01-27T11:43:23.755Z,3.19
2023-01-27T11:45:57.269Z,3.20
2023-01-27T11:48:23.943Z,3.32
2023-01-27T11:50:50.732Z,3.34
2023-01-27T11:53:17.687Z,3.41
2023-01-27T11:55:50.792Z,3.44
2023-01-27T11:58:46.616Z,3.46
2023-01-27T12:01:23.895Z,3.44
2023-01-27T12:04:14.264Z,3.57
2023-01-27T12:06:50.573Z,3.53
2023-01-27T12:09:38.549Z,3.46
2023-01-27T12:12:11.839Z,3.47
2023-01-27T12:14:38.461Z,3.44
2023-01-27T12:17:06.439Z,3.46
2023-01-27T12:19:40.152Z,3.40
2023-01-27T12:22:15.095Z,3.39
2023-01-27T12:24:47.924Z,3.36
2023-01-27T12:27:24.191Z,3.44
2023-01-27T12:29:55.557Z,3.44
2023-01-27T12:32:34.836Z,3.36
2023-01-27T12:35:02.618Z,3.33
2023-01-27T12:37:37.538Z,3.32
2023-01-27T12:40:07.916Z,3.26
2023-01-27T12:42:38.954Z,3.34
2023-01-27T12:45:31.796Z,3.30
2023-01-27T12:48:13.153Z,3.34
2023-01-27T12:50:50.205Z,3.49
2023-01-27T12:53:21.436Z,3.56
2023-01-27T12:56:04.549Z,3.56
2023-01-27T12:58:31.665Z,3.51
2023-01-27T13:01:00.799Z,3.51
2023-01-27T13:03:29.418Z,3.63
2023-01-27T13:05:58.245Z,3.75
2023-01-27T13:08:27.603Z,3.87
2023-01-27T13:10:59.663Z,3.87
2023-01-27T13:13:29.090Z,3.87
2023-01-27T13:16:06.953Z,4.02
2023-01-27T13:18:42.250Z,3.99
2023-01-27T13:21:17.985Z,4.02
2023-01-27T13:23:47.946Z,3.95
2023-01-27T13:26:41.564Z,3.92
2023-01-27T13:29:24.135Z,3.90
2023-01-27T13:32:11.472Z,3.84
2023-01-27T13:35:17.389Z,3.84
2023-01-27T13:37:51.321Z,3.85
2023-01-27T13:40:32.476Z,3.82
2023-01-27T13:43:12.323Z,3.82
2023-01-27T13:45:53.640Z,3.80
2023-01-27T13:48:29.175Z,3.80
2023-01-27T13:51:02.040Z,3.75
2023-01-27T13:53:28.668Z,3.71
2023-01-27T13:56:19.577Z,3.70
2023-01-27T13:59:04.218Z,3.69
2023-01-27T14:01:57.477Z,3.74
2023-01-27T14:04:59.464Z,3.74
2023-01-27T14:07:52.695Z,3.74
2023-01-27T14:10:27.966Z,3.70
2023-01-27T14:13:12.691Z,3.71
2023-01-27T14:16:09.888Z,3.75
2023-01-27T14:18:41.585Z,3.70
2023-01-27T14:21:39.327Z,3.67
2023-01-27T14:24:36.686Z,3.67
2023-01-27T14:27:17.768Z,3.66
2023-01-27T14:29:59.280Z,3.70
2023-01-27T14:32:34.858Z,3.69
2023-01-27T14:35:23.093Z,3.64
2023-01-27T14:38:10.632Z,3.59
2023-01-27T14:40:57.613Z,3.51
2023-01-27T14:43:45.490Z,3.47
2023-01-27T14:46:29.163Z,3.53
2023-01-27T14:49:27.713Z,3.41
2023-01-27T14:52:13.343Z,3.36
2023-01-27T14:55:27.899Z,3.29
2023-01-27T14:58:23.385Z,3.23
2023-01-27T15:01:06.992Z,3.10
2023-01-27T15:03:46.006Z,3.03
2023-01-27T15:06:22.193Z,2.96
2023-01-27T15:09:04.270Z,2.89
2023-01-27T15:12:06.598Z,2.84
2023-01-27T15:14:59.189Z,2.74
2023-01-27T15:17:52.585Z,2.74
2023-01-27T15:20:27.255Z,2.74
2023-01-27T15:23:27.080Z,2.72
2023-01-27T15:25:57.273Z,2.71
2023-01-27T15:28:29.322Z,2.72
2023-01-27T15:31:10.121Z,2.71
2023-01-27T15:33:48.975Z,2.71
2023-01-27T15:36:27.753Z,2.70
2023-01-27T15:39:09.757Z,2.74
2023-01-27T15:41:37.650Z,2.74
2023-01-27T15:44:04.509Z,2.71
2023-01-27T15:46:36.143Z,2.72
2023-01-27T15:49:08.243Z,2.75
2023-01-27T15:51:36.671Z,2.77
2023-01-27T15:54:04.330Z,2.70
2023-01-27T15:56:53.080Z,2.70
2023-01-27T15:59:25.453Z,2.77
2023-01-27T16:02:28.696Z,2.71
2023-01-27T16:05:26.758Z,2.66
2023-01-27T16:07:58.030Z,2.70
2023-01-27T16:10:27.555Z,2.65
2023-01-27T16:13:20.061Z,2.65
2023-01-27T16:15:46.931Z,2.60
2023-01-27T16:18:13.540Z,2.52
2023-01-27T16:20:51.697Z,2.34
2023-01-27T16:23:49.134Z,2.13
2023-01-27T16:26:20.458Z,1.89
2023-01-27T16:28:50.880Z,1.69
2023-01-27T16:31:22.231Z,1.52
2023-01-27T16:33:55.449Z,1.37
2023-01-27T16:36:32.598Z,1.20
2023-01-27T16:39:27.076Z,1.07
2023-01-27T16:41:57.436Z,0.99
2023-01-27T16:44:37.510Z,0.91
2023-01-27T16:47:16.674Z,0.80
2023-01-27T16:49:43.984Z,0.72
2023-01-27T16:52:42.317Z,0.63
2023-01-27T16:55:22.023Z,0.56
2023-01-27T16:57:50.551Z,0.50
2023-01-27T17:00:23.167Z,0.45
2023-01-27T17:02:52.144Z,0.33
2023-01-27T17:05:20.441Z,0.28
2023-01-27T17:08:21.764Z,0.18
2023-01-27T17:10:55.535Z,0.09
2023-01-27T17:13:34.680Z,0.01
2023-01-27T17:16:06.076Z,-0.07
2023-01-27T17:18:50.827Z,-0.19
2023-01-27T17:21:39.246Z,-0.29
2023-01-27T17:24:14.580Z,-0.34
2023-01-27T17:26:45.247Z,-0.40
2023-01-27T17:29:21.306Z,-0.50
2023-01-27T17:31:48.548Z,-0.54
2023-01-27T17:34:20.515Z,-0.60
2023-01-27T17:37:15.858Z,-0.62
2023-01-27T17:39:43.679Z,-0.64
2023-01-27T17:42:19.046Z,-0.70
2023-01-27T17:44:47.261Z,-0.74
2023-01-27T17:47:16.769Z,-0.78
2023-01-27T17:49:44.732Z,-0.85
2023-01-27T17:52:17.923Z,-0.88
2023-01-27T17:54:46.812Z,-0.92
2023-01-27T17:57:40.073Z,-0.98
2023-01-27T18:00:11.061Z,-0.98
2023-01-27T18:02:59.982Z,-1.01
2023-01-27T18:05:30.632Z,-1.05
2023-01-27T18:07:57.289Z,-1.05
2023-01-27T18:10:35.650Z,-1.12
2023-01-27T18:13:11.822Z,-1.12
2023-01-27T18:15:42.084Z,-1.08
2023-01-27T18:18:26.177Z,-0.98
2023-01-27T18:20:53.763Z,-0.96
2023-01-27T18:23:26.433Z,-0.98
2023-01-27T18:26:51.875Z,-0.95
2023-01-27T18:29:27.088Z,-0.87
2023-01-27T18:31:57.412Z,-0.82
2023-01-27T18:34:33.100Z,-0.80
2023-01-27T18:37:06.091Z,-0.78
2023-01-27T18:39:40.681Z,-0.72
2023-01-27T18:42:16.799Z,-0.72
2023-01-27T18:44:43.802Z,-0.70
2023-01-27T18:47:19.363Z,-0.68
2023-01-27T18:50:04.903Z,-0.65
2023-01-27T18:52:31.599Z,-0.60
2023-01-27T18:55:17.147Z,-0.54
2023-01-27T18:57:45.573Z,-0.53
2023-01-27T19:00:25.394Z,-0.50
2023-01-27T19:02:56.339Z,-0.41
2023-01-27T19:05:29.393Z,-0.33
2023-01-27T19:07:56.522Z,-0.29
2023-01-27T19:10:26.064Z,-0.20
2023-01-27T19:12:53.073Z,-0.07
2023-01-27T19:15:23.736Z,0.02
2023-01-27T19:17:52.087Z,0.05
2023-01-27T19:20:29.836Z,0.14
2023-01-27T19:22:57.870Z,0.11
2023-01-27T19:25:29.461Z,0.08
2023-01-27T19:28:01.484Z,0.15
2023-01-27T19:30:36.207Z,0.14
2023-01-27T19:33:04.625Z,0.12
2023-01-27T19:35:32.341Z,0.15
2023-01-27T19:38:02.438Z,0.08
2023-01-27T19:40:31.323Z,0.08
2023-01-27T19:42:58.115Z,0.01
2023-01-27T19:45:27.456Z,0.08
2023-01-27T19:47:54.087Z,0.11
2023-01-27T19:50:25.028Z,0.26
2023-01-27T19:52:51.811Z,0.25
2023-01-27T19:55:20.635Z,0.19
2023-01-27T19:57:48.630Z,0.18
2023-01-27T20:00:26.508Z,0.24
2023-01-27T20:02:53.250Z,0.24
2023-01-27T20:05:20.648Z,0.21
2023-01-27T20:07:47.539Z,0.14
2023-01-27T20:10:17.670Z,0.09
2023-01-27T20:12:45.553Z,0.08
2023-01-27T20:15:17.783Z,-0.02
2023-01-27T20:17:44.671Z,-0.09
2023-01-27T20:20:11.455Z,-0.13
2023-01-27T20:22:38.072Z,-0.10
2023-01-27T20:25:05.045Z,-0.16
2023-01-27T20:27:31.841Z,-0.20
2023-01-27T20:29:58.420Z,-0.26
2023-01-27T20:32:26.032Z,-0.30
2023-01-27T20:34:52.771Z,-0.36
2023-01-27T20:37:19.349Z,-0.37
2023-01-27T20:39:45.881Z,-0.41
2023-01-27T20:42:12.572Z,-0.45
2023-01-27T20:44:39.081Z,-0.47
2023-01-27T20:47:05.651Z,-0.44
2023-01-27T20:49:34.551Z,-0.45
2023-01-27T20:52:01.347Z,-0.49
2023-01-27T20:54:27.907Z,-0.51
2023-01-27T20:56:54.665Z,-0.54
2023-01-27T20:59:21.226Z,-0.56
2023-01-27T21:01:48.350Z,-0.60
2023-01-27T21:04:15.126Z,-0.62
2023-01-27T21:06:41.905Z,-0.67
2023-01-27T21:09:08.707Z,-0.75
2023-01-27T21:11:35.382Z,-0.80
2023-01-27T21:14:01.967Z,-0.81
2023-01-27T21:16:28.843Z,-0.85
2023-01-27T21:18:55.399Z,-0.91
2023-01-27T21:21:27.900Z,-0.95
2023-01-27T21:23:55.236Z,-0.99
2023-01-27T21:26:22.249Z,-0.99
2023-01-27T21:28:49.068Z,-1.06
2023-01-27T21:31:17.964Z,-1.11
2023-01-27T21:33:50.083Z,-1.17
2023-01-27T21:36:17.979Z,-1.25
2023-01-27T21:38:44.623Z,-1.29
2023-01-27T21:41:14.215Z,-1.40
2023-01-27T21:43:59.595Z,-1.50
2023-01-27T21:46:26.235Z,-1.61
2023-01-27T21:48:52.893Z,-1.73
2023-01-27T21:51:19.461Z,-1.81
2023-01-27T21:53:46.022Z,-1.88
2023-01-27T21:56:13.292Z,-1.97
2023-01-27T21:58:40.253Z,-2.05
2023-01-27T22:01:08.175Z,-2.11
2023-01-27T22:03:37.162Z,-2.15
2023-01-27T22:06:05.787Z,-2.21
2023-01-27T22:08:33.167Z,-2.29
2023-01-27T22:11:12.265Z,-2.32
2023-01-27T22:13:39.587Z,-2.38
2023-01-27T22:16:06.932Z,-2.41
2023-01-27T22:18:33.696Z,-2.46
2023-01-27T22:21:03.617Z,-2.48
2023-01-27T22:23:30.679Z,-2.46
2023-01-27T22:25:57.580Z,-2.48
2023-01-27T22:28:25.403Z,-2.50
2023-01-27T22:30:52.818Z,-2.54
2023-01-27T22:33:19.663Z,-2.57
2023-01-27T22:35:46.320Z,-2.60
2023-01-27T22:38:12.956Z,-2.64
2023-01-27T22:40:39.536Z,-2.63
2023-01-27T22:43:10.177Z,-2.64
2023-01-27T22:45:40.068Z,-2.64
2023-01-27T22:48:08.603Z,-2.59
2023-01-27T22:50:35.850Z,-2.54
2023-01-27T22:53:04.013Z,-2.52
2023-01-27T22:55:30.601Z,-2.52
2023-01-27T22:57:57.203Z,-2.53
2023-01-27T23:00:23.829Z,-2.56
2023-01-27T23:02:50.446Z,-2.57
2023-01-27T23:05:17.413Z,-2.63
2023-01-27T23:07:44.274Z,-2.69
2023-01-27T23:10:11.084Z,-2.74
2023-01-27T23:12:37.675Z,-2.83
2023-01-27T23:15:05.002Z,-2.88
2023-01-27T23:17:31.682Z,-2.94
2023-01-27T23:19:58.277Z,-3.00
2023-01-27T23:22:24.921Z,-3.05
2023-01-27T23:24:52.976Z,-3.12
2023-01-27T23:27:19.874Z,-3.18
2023-01-27T23:29:46.422Z,-3.24
2023-01-27T23:32:13.337Z,-3.24
2023-01-27T23:34:40.120Z,-3.31
2023-01-27T23:37:06.779Z,-3.31
2023-01-27T23:39:33.404Z,-3.34
2023-01-27T23:41:59.976Z,-3.34
2023-01-27T23:44:26.580Z,-3.36
2023-01-27T23:46:53.328Z,-3.38
2023-01-27T23:49:20.094Z,-3.39
2023-01-27T23:51:46.651Z,-3.41
2023-01-27T23:54:13.526Z,-3.41
2023-01-27T23:56:40.112Z,-3.48
2023-01-27T23:59:06.691Z,-3.45
